sensor_id;sensor_type;location;lat;lon;timestamp;pressure;altitude;pressure_sealevel;temperature;humidity
20119;BME280;10220;42.716;23.306;2023-01-27T00:02:11;94448.78;;;0.65;100.00
20119;BME280;10220;42.716;23.306;2023-01-27T00:04:36;94456.41;;;0.73;100.00
20119;BME280;10220;42.716;23.306;2023-01-27T00:07:01;94449.81;;;0.95;100.00
20119;BME280;10220;42.716;23.306;2023-01-27T00:09:27;94449.69;;;0.96;100.00
20119;BME280;10220;42.716;23.306;2023-01-27T00:11:52;94464.03;;;0.89;100.00
20119;BME280;10220;42.716;23.306;2023-01-27T00:14:36;94451.72;;;1.09;100.00
20119;BME280;10220;42.716;23.306;2023-01-27T00:17:02;94451.03;;;1.22;100.00
20119;BME280;10220;42.716;23.306;2023-01-27T00:19:27;94450.47;;;0.97;100.00
20119;BME280;10220;42.716;23.306;2023-01-27T00:21:52;94399.06;;;0.85;100.00
20119;BME280;10220;42.716;23.306;2023-01-27T00:24:36;94413.59;;;1.15;100.00
20119;BME280;10220;42.716;23.306;2023-01-27T00:27:03;94419.50;;;1.54;100.00
20119;BME280;10220;42.716;23.306;2023-01-27T00:29:29;94420.34;;;1.69;100.00
20119;BME280;10220;42.716;23.306;2023-01-27T00:31:54;94411.88;;;1.76;100.00
20119;BME280;10220;42.716;23.306;2023-01-27T00:34:38;94420.59;;;1.81;100.00
20119;BME280;10220;42.716;23.306;2023-01-27T00:37:05;94423.50;;;1.78;100.00
20119;BME280;10220;42.716;23.306;2023-01-27T00:39:31;94411.13;;;1.68;100.00
20119;BME280;10220;42.716;23.306;2023-01-27T00:41:56;94397.84;;;1.12;100.00
20119;BME280;10220;42.716;23.306;2023-01-27T00:44:21;94422.91;;;1.00;100.00
20119;BME280;10220;42.716;23.306;2023-01-27T00:46:48;94370.28;;;0.77;100.00
20119;BME280;10220;42.716;23.306;2023-01-27T00:49:13;94430.47;;;1.24;100.00
20119;BME280;10220;42.716;23.306;2023-01-27T00:51:39;94420.50;;;1.07;100.00
20119;BME280;10220;42.716;23.306;2023-01-27T00:54:04;94415.28;;;1.00;100.00
20119;BME280;10220;42.716;23.306;2023-01-27T00:56:30;94414.91;;;1.11;100.00
20119;BME280;10220;42.716;23.306;2023-01-27T00:58:56;94382.84;;;1.16;100.00
20119;BME280;10220;42.716;23.306;2023-01-27T01:01:21;94418.22;;;1.19;100.00
20119;BME280;10220;42.716;23.306;2023-01-27T01:03:47;94434.28;;;0.82;100.00
20119;BME280;10220;42.716;23.306;2023-01-27T01:06:15;94386.34;;;0.77;100.00
20119;BME280;10220;42.716;23.306;2023-01-27T01:08:41;94427.81;;;1.10;100.00
20119;BME280;10220;42.716;23.306;2023-01-27T01:11:08;94383.31;;;0.74;100.00
20119;BME280;10220;42.716;23.306;2023-01-27T01:13:35;94367.06;;;0.83;100.00
20119;BME280;10220;42.716;23.306;2023-01-27T01:16:21;94417.50;;;0.95;100.00
20119;BME280;10220;42.716;23.306;2023-01-27T01:18:47;94411.63;;;0.87;100.00
20119;BME280;10220;42.716;23.306;2023-01-27T01:21:13;94427.16;;;1.08;100.00
20119;BME280;10220;42.716;23.306;2023-01-27T01:23:40;94429.03;;;1.21;100.00
20119;BME280;10220;42.716;23.306;2023-01-27T01:26:11;94417.28;;;1.13;100.00
20119;BME280;10220;42.716;23.306;2023-01-27T01:28:40;94382.53;;;0.73;100.00
20119;BME280;10220;42.716;23.306;2023-01-27T01:31:07;94426.84;;;1.18;100.00
20119;BME280;10220;42.716;23.306;2023-01-27T01:33:33;94423.88;;;1.37;100.00
20119;BME280;10220;42.716;23.306;2023-01-27T01:36:10;94416.31;;;1.52;100.00
20119;BME280;10220;42.716;23.306;2023-01-27T01:38:36;94432.13;;;1.47;100.00
20119;BME280;10220;42.716;23.306;2023-01-27T01:41:02;94392.44;;;1.15;100.00
20119;BME280;10220;42.716;23.306;2023-01-27T01:43:27;94431.91;;;1.26;100.00
20119;BME280;10220;42.716;23.306;2023-01-27T01:45:58;94421.50;;;0.98;100.00
20119;BME280;10220;42.716;23.306;2023-01-27T01:48:28;94450.06;;;1.31;100.00
20119;BME280;10220;42.716;23.306;2023-01-27T01:51:02;94414.41;;;0.69;100.00
20119;BME280;10220;42.716;23.306;2023-01-27T01:53:39;94392.50;;;0.91;100.00
20119;BME280;10220;42.716;23.306;2023-01-27T01:56:11;94429.00;;;1.29;100.00
20119;BME280;10220;42.716;23.306;2023-01-27T01:58:38;94411.94;;;1.38;100.00
20119;BME280;10220;42.716;23.306;2023-01-27T02:01:05;94416.81;;;1.47;100.00
20119;BME280;10220;42.716;23.306;2023-01-27T02:03:32;94421.78;;;1.41;100.00
20119;BME280;10220;42.716;23.306;2023-01-27T02:05:58;94374.97;;;0.96;100.00
20119;BME280;10220;42.716;23.306;2023-01-27T02:08:37;94401.25;;;1.04;100.00
20119;BME280;10220;42.716;23.306;2023-01-27T02:11:08;94392.41;;;1.22;100.00
20119;BME280;10220;42.716;23.306;2023-01-27T02:13:33;94362.16;;;1.12;100.00
20119;BME280;10220;42.716;23.306;2023-01-27T02:15:59;94386.22;;;1.17;100.00
20119;BME280;10220;42.716;23.306;2023-01-27T02:18:25;94350.56;;;1.01;100.00
20119;BME280;10220;42.716;23.306;2023-01-27T02:20:52;94323.44;;;0.86;100.00
20119;BME280;10220;42.716;23.306;2023-01-27T02:26:15;94352.56;;;1.21;100.00
20119;BME280;10220;42.716;23.306;2023-01-27T02:28:41;94361.00;;;1.22;100.00
20119;BME280;10220;42.716;23.306;2023-01-27T02:31:07;94335.34;;;1.23;100.00
20119;BME280;10220;42.716;23.306;2023-01-27T02:33:33;94342.50;;;1.28;100.00
20119;BME280;10220;42.716;23.306;2023-01-27T02:36:07;94358.38;;;1.00;100.00
20119;BME280;10220;42.716;23.306;2023-01-27T02:38:39;94357.56;;;0.69;100.00
20119;BME280;10220;42.716;23.306;2023-01-27T02:41:10;94357.38;;;0.78;100.00
20119;BME280;10220;42.716;23.306;2023-01-27T02:43:37;94379.03;;;1.13;100.00
20119;BME280;10220;42.716;23.306;2023-01-27T02:46:02;94350.44;;;1.03;100.00
20119;BME280;10220;42.716;23.306;2023-01-27T02:48:28;94361.50;;;1.17;100.00
20119;BME280;10220;42.716;23.306;2023-01-27T02:50:53;94360.84;;;1.15;100.00
20119;BME280;10220;42.716;23.306;2023-01-27T02:53:19;94377.91;;;1.15;100.00
20119;BME280;10220;42.716;23.306;2023-01-27T02:55:44;94377.09;;;0.76;100.00
20119;BME280;10220;42.716;23.306;2023-01-27T02:58:09;94330.09;;;0.49;100.00
20119;BME280;10220;42.716;23.306;2023-01-27T03:00:35;94327.66;;;0.63;100.00
20119;BME280;10220;42.716;23.306;2023-01-27T03:03:00;94374.88;;;1.19;100.00
20119;BME280;10220;42.716;23.306;2023-01-27T03:05:26;94364.31;;;1.30;100.00
20119;BME280;10220;42.716;23.306;2023-01-27T03:07:51;94386.38;;;1.08;100.00
20119;BME280;10220;42.716;23.306;2023-01-27T03:10:17;94341.00;;;0.73;100.00
20119;BME280;10220;42.716;23.306;2023-01-27T03:12:43;94366.72;;;0.94;100.00
20119;BME280;10220;42.716;23.306;2023-01-27T03:15:09;94320.28;;;1.06;100.00
20119;BME280;10220;42.716;23.306;2023-01-27T03:17:53;94309.38;;;1.20;100.00
20119;BME280;10220;42.716;23.306;2023-01-27T03:20:47;94305.13;;;1.35;100.00
20119;BME280;10220;42.716;23.306;2023-01-27T03:23:15;94354.41;;;1.58;100.00
20119;BME280;10220;42.716;23.306;2023-01-27T03:25:45;94331.69;;;1.71;100.00
20119;BME280;10220;42.716;23.306;2023-01-27T03:28:12;94337.88;;;1.76;100.00
20119;BME280;10220;42.716;23.306;2023-01-27T03:30:39;94326.28;;;1.88;100.00
20119;BME280;10220;42.716;23.306;2023-01-27T03:33:05;94321.72;;;1.83;100.00
20119;BME280;10220;42.716;23.306;2023-01-27T03:35:33;94330.44;;;1.44;100.00
20119;BME280;10220;42.716;23.306;2023-01-27T03:38:11;94317.16;;;1.49;100.00
20119;BME280;10220;42.716;23.306;2023-01-27T03:40:55;94270.75;;;1.53;100.00
20119;BME280;10220;42.716;23.306;2023-01-27T03:43:39;94312.91;;;1.19;100.00
20119;BME280;10220;42.716;23.306;2023-01-27T03:46:22;94303.63;;;0.96;100.00
20119;BME280;10220;42.716;23.306;2023-01-27T03:48:51;94258.38;;;0.67;100.00
20119;BME280;10220;42.716;23.306;2023-01-27T03:51:18;94289.03;;;1.12;100.00
20119;BME280;10220;42.716;23.306;2023-01-27T03:53:44;94264.88;;;0.70;100.00
20119;BME280;10220;42.716;23.306;2023-01-27T03:56:10;94294.56;;;0.93;100.00
20119;BME280;10220;42.716;23.306;2023-01-27T03:58:37;94312.03;;;1.04;100.00
20119;BME280;10220;42.716;23.306;2023-01-27T04:01:14;94309.78;;;1.09;100.00
20119;BME280;10220;42.716;23.306;2023-01-27T04:03:39;94265.19;;;1.05;100.00
20119;BME280;10220;42.716;23.306;2023-01-27T04:06:26;94311.75;;;1.21;100.00
20119;BME280;10220;42.716;23.306;2023-01-27T04:09:11;94304.56;;;0.95;100.00
20119;BME280;10220;42.716;23.306;2023-01-27T04:11:37;94341.41;;;0.84;100.00
20119;BME280;10220;42.716;23.306;2023-01-27T04:17:02;94361.88;;;0.99;100.00
20119;BME280;10220;42.716;23.306;2023-01-27T04:19:28;94359.59;;;0.81;100.00
20119;BME280;10220;42.716;23.306;2023-01-27T04:21:54;94384.00;;;0.68;100.00
20119;BME280;10220;42.716;23.306;2023-01-27T04:24:20;94358.00;;;0.72;100.00
20119;BME280;10220;42.716;23.306;2023-01-27T04:26:56;94366.44;;;1.19;100.00
20119;BME280;10220;42.716;23.306;2023-01-27T04:29:25;94353.03;;;1.25;100.00
20119;BME280;10220;42.716;23.306;2023-01-27T04:31:51;94370.25;;;1.45;100.00
20119;BME280;10220;42.716;23.306;2023-01-27T04:34:17;94395.81;;;1.68;100.00
20119;BME280;10220;42.716;23.306;2023-01-27T04:36:42;94392.72;;;1.50;100.00
20119;BME280;10220;42.716;23.306;2023-01-27T04:39:09;94373.28;;;1.49;100.00
20119;BME280;10220;42.716;23.306;2023-01-27T04:41:35;94391.97;;;1.72;100.00
20119;BME280;10220;42.716;23.306;2023-01-27T04:44:01;94393.94;;;1.84;100.00
20119;BME280;10220;42.716;23.306;2023-01-27T04:46:27;94389.56;;;1.70;100.00
20119;BME280;10220;42.716;23.306;2023-01-27T04:48:52;94402.13;;;1.49;100.00
20119;BME280;10220;42.716;23.306;2023-01-27T04:51:18;94387.06;;;1.62;100.00
20119;BME280;10220;42.716;23.306;2023-01-27T04:53:43;94394.78;;;1.76;100.00
20119;BME280;10220;42.716;23.306;2023-01-27T04:58:50;94414.25;;;1.77;100.00
20119;BME280;10220;42.716;23.306;2023-01-27T05:01:16;94410.84;;;1.63;100.00
20119;BME280;10220;42.716;23.306;2023-01-27T05:03:42;94349.88;;;1.15;100.00
20119;BME280;10220;42.716;23.306;2023-01-27T05:06:09;94349.28;;;1.13;100.00
20119;BME280;10220;42.716;23.306;2023-01-27T05:08:35;94362.16;;;1.19;100.00
20119;BME280;10220;42.716;23.306;2023-01-27T05:11:00;94380.81;;;1.42;100.00
20119;BME280;10220;42.716;23.306;2023-01-27T05:13:25;94401.22;;;1.42;100.00
20119;BME280;10220;42.716;23.306;2023-01-27T05:15:51;94357.19;;;1.18;100.00
20119;BME280;10220;42.716;23.306;2023-01-27T05:18:16;94392.34;;;1.30;100.00
20119;BME280;10220;42.716;23.306;2023-01-27T05:20:41;94392.69;;;1.27;100.00
20119;BME280;10220;42.716;23.306;2023-01-27T05:23:07;94403.16;;;1.40;100.00
20119;BME280;10220;42.716;23.306;2023-01-27T05:25:51;94398.22;;;1.01;100.00
20119;BME280;10220;42.716;23.306;2023-01-27T05:28:16;94386.03;;;1.18;100.00
20119;BME280;10220;42.716;23.306;2023-01-27T05:30:41;94383.00;;;1.75;100.00
20119;BME280;10220;42.716;23.306;2023-01-27T05:33:07;94362.66;;;3.77;100.00
20119;BME280;10220;42.716;23.306;2023-01-27T05:35:33;94356.47;;;3.71;100.00
20119;BME280;10220;42.716;23.306;2023-01-27T05:37:58;94310.72;;;4.64;100.00
20119;BME280;10220;42.716;23.306;2023-01-27T05:40:24;94362.66;;;5.47;100.00
20119;BME280;10220;42.716;23.306;2023-01-27T05:42:56;94345.88;;;6.17;100.00
20119;BME280;10220;42.716;23.306;2023-01-27T05:45:21;94347.66;;;6.36;100.00
20119;BME280;10220;42.716;23.306;2023-01-27T05:47:49;94326.81;;;5.20;100.00
20119;BME280;10220;42.716;23.306;2023-01-27T05:50:18;94340.47;;;5.33;100.00
20119;BME280;10220;42.716;23.306;2023-01-27T05:52:44;94351.41;;;4.40;100.00
20119;BME280;10220;42.716;23.306;2023-01-27T05:55:09;94321.97;;;3.88;100.00
20119;BME280;10220;42.716;23.306;2023-01-27T05:57:35;94386.50;;;3.28;100.00
20119;BME280;10220;42.716;23.306;2023-01-27T06:00:00;94372.09;;;3.97;100.00
20119;BME280;10220;42.716;23.306;2023-01-27T06:02:26;94370.25;;;3.70;100.00
20119;BME280;10220;42.716;23.306;2023-01-27T06:04:51;94383.75;;;4.20;100.00
20119;BME280;10220;42.716;23.306;2023-01-27T06:07:17;94391.13;;;4.51;100.00
20119;BME280;10220;42.716;23.306;2023-01-27T06:09:42;94399.34;;;3.48;100.00
20119;BME280;10220;42.716;23.306;2023-01-27T06:12:07;94386.22;;;2.51;100.00
20119;BME280;10220;42.716;23.306;2023-01-27T06:14:33;94372.19;;;3.68;100.00
20119;BME280;10220;42.716;23.306;2023-01-27T06:16:58;94381.63;;;3.47;100.00
20119;BME280;10220;42.716;23.306;2023-01-27T06:19:25;94398.59;;;3.19;100.00
20119;BME280;10220;42.716;23.306;2023-01-27T06:21:50;94335.25;;;3.21;100.00
20119;BME280;10220;42.716;23.306;2023-01-27T06:24:15;94308.84;;;2.42;100.00
20119;BME280;10220;42.716;23.306;2023-01-27T06:26:41;94385.69;;;3.77;100.00
20119;BME280;10220;42.716;23.306;2023-01-27T06:29:06;94386.44;;;3.56;100.00
20119;BME280;10220;42.716;23.306;2023-01-27T06:31:32;94380.81;;;3.47;100.00
20119;BME280;10220;42.716;23.306;2023-01-27T06:33:57;94340.53;;;3.34;100.00
20119;BME280;10220;42.716;23.306;2023-01-27T06:36:23;94387.47;;;5.00;100.00
20119;BME280;10220;42.716;23.306;2023-01-27T06:38:49;94402.25;;;5.25;100.00
20119;BME280;10220;42.716;23.306;2023-01-27T06:41:14;94402.00;;;3.55;100.00
20119;BME280;10220;42.716;23.306;2023-01-27T06:43:40;94414.31;;;2.36;100.00
20119;BME280;10220;42.716;23.306;2023-01-27T06:46:05;94419.09;;;2.17;100.00
20119;BME280;10220;42.716;23.306;2023-01-27T06:48:31;94408.25;;;2.52;100.00
20119;BME280;10220;42.716;23.306;2023-01-27T06:50:57;94381.63;;;4.51;100.00
20119;BME280;10220;42.716;23.306;2023-01-27T06:53:23;94354.38;;;4.44;100.00
20119;BME280;10220;42.716;23.306;2023-01-27T06:55:57;94406.16;;;3.56;100.00
20119;BME280;10220;42.716;23.306;2023-01-27T06:58:24;94423.25;;;2.55;100.00
20119;BME280;10220;42.716;23.306;2023-01-27T07:00:49;94390.41;;;3.09;100.00
20119;BME280;10220;42.716;23.306;2023-01-27T07:03:16;94355.09;;;1.96;100.00
20119;BME280;10220;42.716;23.306;2023-01-27T07:05:41;94363.41;;;2.13;100.00
20119;BME280;10220;42.716;23.306;2023-01-27T07:08:07;94429.91;;;1.97;100.00
20119;BME280;10220;42.716;23.306;2023-01-27T07:10:32;94443.63;;;1.96;100.00
20119;BME280;10220;42.716;23.306;2023-01-27T07:13:05;94421.91;;;2.00;100.00
20119;BME280;10220;42.716;23.306;2023-01-27T07:15:31;94390.03;;;1.73;100.00
20119;BME280;10220;42.716;23.306;2023-01-27T07:17:58;94381.31;;;1.68;100.00
20119;BME280;10220;42.716;23.306;2023-01-27T07:20:24;94381.41;;;1.52;100.00
20119;BME280;10220;42.716;23.306;2023-01-27T07:22:55;94403.19;;;1.63;100.00
20119;BME280;10220;42.716;23.306;2023-01-27T07:25:20;94377.53;;;1.34;100.00
20119;BME280;10220;42.716;23.306;2023-01-27T07:27:46;94396.19;;;1.57;100.00
20119;BME280;10220;42.716;23.306;2023-01-27T07:30:11;94345.44;;;1.39;100.00
20119;BME280;10220;42.716;23.306;2023-01-27T07:32:37;94338.66;;;1.54;100.00
20119;BME280;10220;42.716;23.306;2023-01-27T07:35:03;94376.19;;;1.46;100.00
20119;BME280;10220;42.716;23.306;2023-01-27T07:37:28;94386.63;;;1.59;100.00
20119;BME280;10220;42.716;23.306;2023-01-27T07:39:53;94383.06;;;1.37;100.00
20119;BME280;10220;42.716;23.306;2023-01-27T07:42:19;94366.94;;;1.45;100.00
20119;BME280;10220;42.716;23.306;2023-01-27T07:44:44;94414.75;;;1.51;100.00
20119;BME280;10220;42.716;23.306;2023-01-27T07:47:10;94399.44;;;1.51;100.00
20119;BME280;10220;42.716;23.306;2023-01-27T07:49:35;94408.59;;;1.60;100.00
20119;BME280;10220;42.716;23.306;2023-01-27T07:52:00;94345.91;;;1.13;100.00
20119;BME280;10220;42.716;23.306;2023-01-27T07:54:26;94423.13;;;1.59;100.00
20119;BME280;10220;42.716;23.306;2023-01-27T07:56:51;94400.44;;;1.42;100.00
20119;BME280;10220;42.716;23.306;2023-01-27T07:59:17;94349.53;;;1.18;100.00
20119;BME280;10220;42.716;23.306;2023-01-27T08:01:42;94413.72;;;1.29;100.00
20119;BME280;10220;42.716;23.306;2023-01-27T08:04:07;94400.97;;;1.29;100.00
20119;BME280;10220;42.716;23.306;2023-01-27T08:06:33;94366.84;;;1.00;100.00
20119;BME280;10220;42.716;23.306;2023-01-27T08:08:58;94409.16;;;1.47;100.00
20119;BME280;10220;42.716;23.306;2023-01-27T08:11:25;94335.84;;;1.19;100.00
20119;BME280;10220;42.716;23.306;2023-01-27T08:13:50;94395.91;;;1.52;100.00
20119;BME280;10220;42.716;23.306;2023-01-27T08:16:16;94414.88;;;1.57;100.00
20119;BME280;10220;42.716;23.306;2023-01-27T08:18:42;94336.31;;;1.22;100.00
20119;BME280;10220;42.716;23.306;2023-01-27T08:21:09;94420.28;;;1.54;100.00
20119;BME280;10220;42.716;23.306;2023-01-27T08:23:35;94409.28;;;1.54;100.00
20119;BME280;10220;42.716;23.306;2023-01-27T08:26:03;94408.91;;;1.65;100.00
20119;BME280;10220;42.716;23.306;2023-01-27T08:28:30;94413.81;;;1.74;100.00
20119;BME280;10220;42.716;23.306;2023-01-27T08:31:12;94400.63;;;1.32;100.00
20119;BME280;10220;42.716;23.306;2023-01-27T08:33:38;94376.41;;;0.98;100.00
20119;BME280;10220;42.716;23.306;2023-01-27T08:36:09;94428.53;;;1.26;100.00
20119;BME280;10220;42.716;23.306;2023-01-27T08:38:36;94346.22;;;0.79;100.00
20119;BME280;10220;42.716;23.306;2023-01-27T08:41:06;94406.16;;;1.06;100.00
20119;BME280;10220;42.716;23.306;2023-01-27T08:43:32;94407.28;;;1.03;100.00
20119;BME280;10220;42.716;23.306;2023-01-27T08:45:58;94438.38;;;0.91;100.00
20119;BME280;10220;42.716;23.306;2023-01-27T08:48:26;94399.47;;;0.58;100.00
20119;BME280;10220;42.716;23.306;2023-01-27T08:50:52;94444.59;;;0.88;100.00
20119;BME280;10220;42.716;23.306;2023-01-27T08:53:17;94432.41;;;1.14;100.00
20119;BME280;10220;42.716;23.306;2023-01-27T08:55:42;94402.69;;;0.91;100.00
20119;BME280;10220;42.716;23.306;2023-01-27T08:58:08;94443.28;;;1.08;100.00
20119;BME280;10220;42.716;23.306;2023-01-27T09:00:33;94390.69;;;1.07;100.00
20119;BME280;10220;42.716;23.306;2023-01-27T09:02:59;94439.03;;;1.31;100.00
20119;BME280;10220;42.716;23.306;2023-01-27T09:05:24;94420.22;;;1.32;100.00
20119;BME280;10220;42.716;23.306;2023-01-27T09:07:49;94383.50;;;1.18;100.00
20119;BME280;10220;42.716;23.306;2023-01-27T09:10:15;94373.25;;;0.96;100.00
20119;BME280;10220;42.716;23.306;2023-01-27T09:12:42;94397.56;;;1.07;100.00
20119;BME280;10220;42.716;23.306;2023-01-27T09:15:08;94402.22;;;0.95;100.00
20119;BME280;10220;42.716;23.306;2023-01-27T09:17:33;94362.50;;;0.70;100.00
20119;BME280;10220;42.716;23.306;2023-01-27T09:19:59;94430.03;;;1.13;100.00
20119;BME280;10220;42.716;23.306;2023-01-27T09:22:24;94419.84;;;1.13;100.00
20119;BME280;10220;42.716;23.306;2023-01-27T09:24:50;94422.69;;;1.17;100.00
20119;BME280;10220;42.716;23.306;2023-01-27T09:27:15;94421.78;;;0.95;100.00
20119;BME280;10220;42.716;23.306;2023-01-27T09:29:41;94410.44;;;1.05;100.00
20119;BME280;10220;42.716;23.306;2023-01-27T09:32:06;94392.06;;;0.87;100.00
20119;BME280;10220;42.716;23.306;2023-01-27T09:34:33;94415.41;;;1.07;100.00
20119;BME280;10220;42.716;23.306;2023-01-27T09:37:06;94386.63;;;0.90;100.00
20119;BME280;10220;42.716;23.306;2023-01-27T09:39:36;94396.91;;;1.05;100.00
20119;BME280;10220;42.716;23.306;2023-01-27T09:42:28;94377.69;;;0.94;100.00
20119;BME280;10220;42.716;23.306;2023-01-27T09:56:07;94375.88;;;1.11;100.00
20119;BME280;10220;42.716;23.306;2023-01-27T10:27:46;94371.50;;;0.89;100.00
20119;BME280;10220;42.716;23.306;2023-01-27T10:30:15;94363.06;;;0.88;100.00
20119;BME280;10220;42.716;23.306;2023-01-27T10:35:30;94359.69;;;0.96;100.00
20119;BME280;10220;42.716;23.306;2023-01-27T10:38:12;94344.19;;;1.05;100.00
20119;BME280;10220;42.716;23.306;2023-01-27T10:46:15;94351.38;;;1.02;100.00
20119;BME280;10220;42.716;23.306;2023-01-27T10:49:00;94337.69;;;0.95;100.00
20119;BME280;10220;42.716;23.306;2023-01-27T10:51:33;94333.84;;;0.99;100.00
20119;BME280;10220;42.716;23.306;2023-01-27T10:54:05;94282.75;;;0.62;100.00
20119;BME280;10220;42.716;23.306;2023-01-27T10:56:55;94336.88;;;1.32;100.00
20119;BME280;10220;42.716;23.306;2023-01-27T10:59:44;94303.00;;;1.24;100.00
20119;BME280;10220;42.716;23.306;2023-01-27T11:02:41;94335.53;;;1.14;100.00
20119;BME280;10220;42.716;23.306;2023-01-27T11:05:21;94347.53;;;1.36;100.00
20119;BME280;10220;42.716;23.306;2023-01-27T11:07:53;94308.22;;;1.00;100.00
20119;BME280;10220;42.716;23.306;2023-01-27T11:10:24;94346.94;;;1.26;100.00
20119;BME280;10220;42.716;23.306;2023-01-27T11:12:54;94295.69;;;0.91;100.00
20119;BME280;10220;42.716;23.306;2023-01-27T11:15:26;94339.41;;;1.32;100.00
20119;BME280;10220;42.716;23.306;2023-01-27T11:18:12;94338.41;;;1.41;100.00
20119;BME280;10220;42.716;23.306;2023-01-27T11:21:15;94341.34;;;1.30;100.00
20119;BME280;10220;42.716;23.306;2023-01-27T11:23:45;94339.41;;;1.32;100.00
20119;BME280;10220;42.716;23.306;2023-01-27T11:26:26;94325.47;;;1.20;100.00
20119;BME280;10220;42.716;23.306;2023-01-27T11:34:25;94318.63;;;1.21;100.00
20119;BME280;10220;42.716;23.306;2023-01-27T11:36:55;94272.25;;;0.95;100.00
20119;BME280;10220;42.716;23.306;2023-01-27T11:39:21;94319.94;;;1.17;100.00
20119;BME280;10220;42.716;23.306;2023-01-27T11:41:52;94307.78;;;1.19;100.00
20119;BME280;10220;42.716;23.306;2023-01-27T11:44:23;94312.34;;;1.31;100.00
20119;BME280;10220;42.716;23.306;2023-01-27T11:46:51;94307.00;;;1.18;100.00
20119;BME280;10220;42.716;23.306;2023-01-27T11:49:22;94329.69;;;1.36;100.00
20119;BME280;10220;42.716;23.306;2023-01-27T11:51:50;94312.59;;;1.14;100.00
20119;BME280;10220;42.716;23.306;2023-01-27T11:54:26;94276.94;;;0.84;100.00
20119;BME280;10220;42.716;23.306;2023-01-27T11:56:53;94310.75;;;1.08;100.00
20119;BME280;10220;42.716;23.306;2023-01-27T11:59:26;94305.63;;;1.08;100.00
20119;BME280;10220;42.716;23.306;2023-01-27T12:02:35;94305.38;;;1.25;100.00
20119;BME280;10220;42.716;23.306;2023-01-27T12:05:09;94318.59;;;1.29;100.00
20119;BME280;10220;42.716;23.306;2023-01-27T12:07:45;94308.56;;;1.27;100.00
20119;BME280;10220;42.716;23.306;2023-01-27T12:12:47;94288.81;;;0.99;100.00
20119;BME280;10220;42.716;23.306;2023-01-27T12:15:17;94316.13;;;1.13;100.00
20119;BME280;10220;42.716;23.306;2023-01-27T12:17:47;94322.34;;;1.11;100.00
20119;BME280;10220;42.716;23.306;2023-01-27T12:20:27;94311.69;;;1.07;100.00
20119;BME280;10220;42.716;23.306;2023-01-27T12:22:58;94259.75;;;0.78;100.00
20119;BME280;10220;42.716;23.306;2023-01-27T12:25:26;94324.81;;;0.88;100.00
20119;BME280;10220;42.716;23.306;2023-01-27T12:28:02;94312.00;;;0.82;100.00
20119;BME280;10220;42.716;23.306;2023-01-27T12:30:37;94305.75;;;0.84;100.00
20119;BME280;10220;42.716;23.306;2023-01-27T12:33:12;94267.56;;;0.76;100.00
20119;BME280;10220;42.716;23.306;2023-01-27T12:35:38;94313.38;;;1.22;100.00
20119;BME280;10220;42.716;23.306;2023-01-27T12:38:29;94276.41;;;0.96;100.00
20119;BME280;10220;42.716;23.306;2023-01-27T12:41:00;94293.00;;;0.92;100.00
20119;BME280;10220;42.716;23.306;2023-01-27T12:43:26;94290.09;;;0.95;100.00
20119;BME280;10220;42.716;23.306;2023-01-27T12:46:14;94316.97;;;1.06;100.00
20119;BME280;10220;42.716;23.306;2023-01-27T12:48:50;94327.03;;;0.99;100.00
20119;BME280;10220;42.716;23.306;2023-01-27T12:51:19;94332.44;;;1.04;100.00
20119;BME280;10220;42.716;23.306;2023-01-27T12:53:47;94310.47;;;0.95;100.00
20119;BME280;10220;42.716;23.306;2023-01-27T13:01:27;94322.13;;;0.90;100.00
20119;BME280;10220;42.716;23.306;2023-01-27T13:04:02;94305.50;;;1.02;100.00
20119;BME280;10220;42.716;23.306;2023-01-27T13:09:03;94312.38;;;0.93;100.00
20119;BME280;10220;42.716;23.306;2023-01-27T13:11:35;94304.56;;;1.03;100.00
20119;BME280;10220;42.716;23.306;2023-01-27T13:14:06;94302.66;;;0.97;100.00
20119;BME280;10220;42.716;23.306;2023-01-27T13:16:32;94303.22;;;1.15;100.00
20119;BME280;10220;42.716;23.306;2023-01-27T13:18:59;94307.91;;;1.25;100.00
20119;BME280;10220;42.716;23.306;2023-01-27T13:21:31;94307.97;;;1.17;100.00
20119;BME280;10220;42.716;23.306;2023-01-27T13:23:58;94311.88;;;1.28;100.00
20119;BME280;10220;42.716;23.306;2023-01-27T13:26:30;94303.94;;;1.23;100.00
20119;BME280;10220;42.716;23.306;2023-01-27T13:29:21;94344.88;;;1.29;100.00
20119;BME280;10220;42.716;23.306;2023-01-27T13:34:26;94297.25;;;1.22;100.00
20119;BME280;10220;42.716;23.306;2023-01-27T13:37:36;94308.94;;;1.39;100.00
20119;BME280;10220;42.716;23.306;2023-01-27T13:40:15;94311.66;;;1.37;100.00
20119;BME280;10220;42.716;23.306;2023-01-27T13:43:04;94309.84;;;1.23;100.00
20119;BME280;10220;42.716;23.306;2023-01-27T13:48:37;94330.97;;;1.10;100.00
20119;BME280;10220;42.716;23.306;2023-01-27T13:51:10;94337.59;;;1.18;100.00
20119;BME280;10220;42.716;23.306;2023-01-27T13:53:37;94301.66;;;1.06;100.00
20119;BME280;10220;42.716;23.306;2023-01-27T14:15:45;94324.63;;;1.28;100.00
20119;BME280;10220;42.716;23.306;2023-01-27T14:18:29;94329.56;;;1.29;100.00
20119;BME280;10220;42.716;23.306;2023-01-27T14:24:00;94329.78;;;1.20;100.00
20119;BME280;10220;42.716;23.306;2023-01-27T14:32:08;94354.50;;;1.19;100.00
20119;BME280;10220;42.716;23.306;2023-01-27T14:40:02;94364.91;;;1.32;100.00
20119;BME280;10220;42.716;23.306;2023-01-27T14:45:20;94360.16;;;1.29;100.00
20119;BME280;10220;42.716;23.306;2023-01-27T14:48:07;94365.81;;;1.17;100.00
20119;BME280;10220;42.716;23.306;2023-01-27T14:50:51;94326.03;;;1.08;100.00
20119;BME280;10220;42.716;23.306;2023-01-27T15:04:33;94375.72;;;1.12;100.00
20119;BME280;10220;42.716;23.306;2023-01-27T15:09:57;94383.53;;;1.11;100.00
20119;BME280;10220;42.716;23.306;2023-01-27T15:15:27;94382.88;;;1.09;100.00